sensor_id;sensor_type;location;lat;lon;timestamp;P1;durP1;ratioP1;P2;durP2;ratioP2
26040;SDS011;13816;53.628;9.950;2023-05-02T00:01:41;33.87;;;23.50;;
26040;SDS011;13816;53.628;9.950;2023-05-02T00:04:09;34.63;;;23.67;;
26040;SDS011;13816;53.628;9.950;2023-05-02T00:06:36;35.83;;;22.50;;
26040;SDS011;13816;53.628;9.950;2023-05-02T00:09:03;39.33;;;27.53;;
26040;SDS011;13816;53.628;9.950;2023-05-02T00:11:30;34.33;;;23.80;;
26040;SDS011;13816;53.628;9.950;2023-05-02T00:13:57;37.30;;;23.47;;
26040;SDS011;13816;53.628;9.950;2023-05-02T00:16:24;31.17;;;23.73;;
26040;SDS011;13816;53.628;9.950;2023-05-02T00:18:51;39.60;;;25.47;;
26040;SDS011;13816;53.628;9.950;2023-05-02T00:21:18;36.57;;;25.83;;
26040;SDS011;13816;53.628;9.950;2023-05-02T00:23:45;40.63;;;27.20;;
26040;SDS011;13816;53.628;9.950;2023-05-02T00:26:12;40.60;;;27.77;;
26040;SDS011;13816;53.628;9.950;2023-05-02T00:28:41;39.53;;;27.13;;
26040;SDS011;13816;53.628;9.950;2023-05-02T00:31:08;40.53;;;28.10;;
26040;SDS011;13816;53.628;9.950;2023-05-02T00:33:35;40.10;;;27.67;;
26040;SDS011;13816;53.628;9.950;2023-05-02T00:36:02;40.50;;;29.20;;
26040;SDS011;13816;53.628;9.950;2023-05-02T00:38:29;39.30;;;25.77;;
26040;SDS011;13816;53.628;9.950;2023-05-02T00:40:56;46.47;;;30.50;;
26040;SDS011;13816;53.628;9.950;2023-05-02T00:43:23;42.97;;;28.40;;
26040;SDS011;13816;53.628;9.950;2023-05-02T00:45:51;44.23;;;29.37;;
26040;SDS011;13816;53.628;9.950;2023-05-02T00:48:18;43.07;;;26.90;;
26040;SDS011;13816;53.628;9.950;2023-05-02T00:50:47;42.43;;;29.57;;
26040;SDS011;13816;53.628;9.950;2023-05-02T00:53:13;36.37;;;27.13;;
26040;SDS011;13816;53.628;9.950;2023-05-02T00:55:41;40.23;;;27.90;;
26040;SDS011;13816;53.628;9.950;2023-05-02T00:58:11;41.87;;;28.43;;
26040;SDS011;13816;53.628;9.950;2023-05-02T01:01:00;39.97;;;27.87;;
26040;SDS011;13816;53.628;9.950;2023-05-02T01:06:12;38.07;;;26.13;;
26040;SDS011;13816;53.628;9.950;2023-05-02T01:09:08;34.50;;;25.80;;
26040;SDS011;13816;53.628;9.950;2023-05-02T01:12:01;33.97;;;24.20;;
26040;SDS011;13816;53.628;9.950;2023-05-02T01:14:40;31.90;;;22.20;;
26040;SDS011;13816;53.628;9.950;2023-05-02T01:17:10;31.70;;;21.90;;
26040;SDS011;13816;53.628;9.950;2023-05-02T01:19:41;31.07;;;20.07;;
26040;SDS011;13816;53.628;9.950;2023-05-02T01:22:13;29.10;;;19.43;;
26040;SDS011;13816;53.628;9.950;2023-05-02T01:27:17;32.20;;;19.30;;
26040;SDS011;13816;53.628;9.950;2023-05-02T01:29:53;30.20;;;19.77;;
26040;SDS011;13816;53.628;9.950;2023-05-02T01:32:23;31.87;;;18.83;;
26040;SDS011;13816;53.628;9.950;2023-05-02T01:34:51;24.27;;;16.63;;
26040;SDS011;13816;53.628;9.950;2023-05-02T01:37:21;24.73;;;16.60;;
26040;SDS011;13816;53.628;9.950;2023-05-02T01:39:49;30.23;;;17.57;;
26040;SDS011;13816;53.628;9.950;2023-05-02T01:42:19;28.73;;;16.17;;
26040;SDS011;13816;53.628;9.950;2023-05-02T01:44:49;28.80;;;16.07;;
26040;SDS011;13816;53.628;9.950;2023-05-02T01:47:20;24.50;;;16.10;;
26040;SDS011;13816;53.628;9.950;2023-05-02T01:49:50;28.00;;;16.20;;
26040;SDS011;13816;53.628;9.950;2023-05-02T01:52:18;30.70;;;16.10;;
26040;SDS011;13816;53.628;9.950;2023-05-02T01:54:49;27.87;;;15.80;;
26040;SDS011;13816;53.628;9.950;2023-05-02T01:57:18;24.93;;;14.40;;
26040;SDS011;13816;53.628;9.950;2023-05-02T01:59:45;24.23;;;14.13;;
26040;SDS011;13816;53.628;9.950;2023-05-02T02:02:14;24.40;;;15.00;;
26040;SDS011;13816;53.628;9.950;2023-05-02T02:04:43;27.13;;;15.27;;
26040;SDS011;13816;53.628;9.950;2023-05-02T02:07:12;20.93;;;14.33;;
26040;SDS011;13816;53.628;9.950;2023-05-02T02:09:40;24.77;;;14.23;;
26040;SDS011;13816;53.628;9.950;2023-05-02T02:12:11;24.23;;;12.87;;
26040;SDS011;13816;53.628;9.950;2023-05-02T02:14:52;23.10;;;12.80;;
26040;SDS011;13816;53.628;9.950;2023-05-02T02:17:31;12.20;;;9.43;;
26040;SDS011;13816;53.628;9.950;2023-05-02T02:20:05;15.37;;;7.63;;
26040;SDS011;13816;53.628;9.950;2023-05-02T02:22:36;17.20;;;8.50;;
26040;SDS011;13816;53.628;9.950;2023-05-02T02:25:06;9.07;;;7.03;;
26040;SDS011;13816;53.628;9.950;2023-05-02T02:27:37;10.70;;;7.53;;
26040;SDS011;13816;53.628;9.950;2023-05-02T02:30:04;10.20;;;7.20;;
26040;SDS011;13816;53.628;9.950;2023-05-02T02:32:32;9.60;;;7.67;;
26040;SDS011;13816;53.628;9.950;2023-05-02T02:34:59;7.33;;;5.20;;
26040;SDS011;13816;53.628;9.950;2023-05-02T02:37:30;8.70;;;5.20;;
26040;SDS011;13816;53.628;9.950;2023-05-02T02:40:04;8.80;;;5.50;;
26040;SDS011;13816;53.628;9.950;2023-05-02T02:48:15;13.83;;;7.40;;
26040;SDS011;13816;53.628;9.950;2023-05-02T02:54:11;20.50;;;5.93;;
26040;SDS011;13816;53.628;9.950;2023-05-02T02:56:18;15.17;;;4.80;;
26040;SDS011;13816;53.628;9.950;2023-05-02T02:59:02;26.73;;;4.73;;
26040;SDS011;13816;53.628;9.950;2023-05-02T03:01:36;18.30;;;5.80;;
26040;SDS011;13816;53.628;9.950;2023-05-02T03:04:09;17.10;;;4.63;;
26040;SDS011;13816;53.628;9.950;2023-05-02T03:06:38;16.43;;;4.43;;
26040;SDS011;13816;53.628;9.950;2023-05-02T03:09:06;25.30;;;4.70;;
26040;SDS011;13816;53.628;9.950;2023-05-02T03:11:46;18.77;;;4.80;;
26040;SDS011;13816;53.628;9.950;2023-05-02T03:14:14;21.30;;;5.73;;
26040;SDS011;13816;53.628;9.950;2023-05-02T03:16:42;29.83;;;5.80;;
26040;SDS011;13816;53.628;9.950;2023-05-02T03:19:13;20.23;;;5.23;;
26040;SDS011;13816;53.628;9.950;2023-05-02T03:21:40;20.33;;;5.00;;
26040;SDS011;13816;53.628;9.950;2023-05-02T03:24:14;20.80;;;4.30;;
26040;SDS011;13816;53.628;9.950;2023-05-02T03:26:43;26.77;;;5.50;;
26040;SDS011;13816;53.628;9.950;2023-05-02T03:29:14;21.80;;;6.33;;
26040;SDS011;13816;53.628;9.950;2023-05-02T03:31:42;25.93;;;5.90;;
26040;SDS011;13816;53.628;9.950;2023-05-02T03:34:10;18.60;;;4.90;;
26040;SDS011;13816;53.628;9.950;2023-05-02T03:36:39;25.07;;;5.13;;
26040;SDS011;13816;53.628;9.950;2023-05-02T03:39:07;23.47;;;5.20;;
26040;SDS011;13816;53.628;9.950;2023-05-02T03:41:35;26.07;;;5.60;;
26040;SDS011;13816;53.628;9.950;2023-05-02T03:44:06;24.53;;;5.40;;
26040;SDS011;13816;53.628;9.950;2023-05-02T03:46:35;20.23;;;4.70;;
26040;SDS011;13816;53.628;9.950;2023-05-02T03:49:06;19.37;;;5.53;;
26040;SDS011;13816;53.628;9.950;2023-05-02T03:51:34;23.83;;;5.00;;
26040;SDS011;13816;53.628;9.950;2023-05-02T03:54:02;22.30;;;5.40;;
26040;SDS011;13816;53.628;9.950;2023-05-02T03:56:31;22.53;;;6.17;;
26040;SDS011;13816;53.628;9.950;2023-05-02T03:59:10;24.67;;;5.67;;
26040;SDS011;13816;53.628;9.950;2023-05-02T04:01:38;22.90;;;5.43;;
26040;SDS011;13816;53.628;9.950;2023-05-02T04:04:06;22.60;;;5.30;;
26040;SDS011;13816;53.628;9.950;2023-05-02T04:06:40;23.33;;;5.37;;
26040;SDS011;13816;53.628;9.950;2023-05-02T04:09:08;22.80;;;5.00;;
26040;SDS011;13816;53.628;9.950;2023-05-02T04:11:42;20.90;;;5.00;;
26040;SDS011;13816;53.628;9.950;2023-05-02T04:14:11;16.97;;;4.47;;
26040;SDS011;13816;53.628;9.950;2023-05-02T04:16:40;15.40;;;4.80;;
26040;SDS011;13816;53.628;9.950;2023-05-02T04:19:08;27.87;;;4.63;;
26040;SDS011;13816;53.628;9.950;2023-05-02T04:21:38;18.97;;;5.20;;
26040;SDS011;13816;53.628;9.950;2023-05-02T04:24:08;29.50;;;5.03;;
26040;SDS011;13816;53.628;9.950;2023-05-02T04:26:36;20.83;;;4.80;;
26040;SDS011;13816;53.628;9.950;2023-05-02T04:29:07;27.57;;;6.00;;
26040;SDS011;13816;53.628;9.950;2023-05-02T04:31:35;21.97;;;5.57;;
26040;SDS011;13816;53.628;9.950;2023-05-02T04:34:04;26.27;;;4.27;;
26040;SDS011;13816;53.628;9.950;2023-05-02T04:36:38;23.87;;;5.70;;
26040;SDS011;13816;53.628;9.950;2023-05-02T04:39:09;21.13;;;4.50;;
26040;SDS011;13816;53.628;9.950;2023-05-02T04:41:41;21.33;;;4.60;;
26040;SDS011;13816;53.628;9.950;2023-05-02T04:44:08;13.47;;;4.83;;
26040;SDS011;13816;53.628;9.950;2023-05-02T04:46:36;18.77;;;5.50;;
26040;SDS011;13816;53.628;9.950;2023-05-02T04:49:04;15.60;;;4.70;;
26040;SDS011;13816;53.628;9.950;2023-05-02T04:51:31;26.97;;;5.20;;
26040;SDS011;13816;53.628;9.950;2023-05-02T04:53:59;25.00;;;6.33;;
26040;SDS011;13816;53.628;9.950;2023-05-02T04:56:27;15.93;;;4.33;;
26040;SDS011;13816;53.628;9.950;2023-05-02T04:58:54;24.10;;;6.00;;
26040;SDS011;13816;53.628;9.950;2023-05-02T05:01:22;15.37;;;3.87;;
26040;SDS011;13816;53.628;9.950;2023-05-02T05:03:53;24.43;;;4.87;;
26040;SDS011;13816;53.628;9.950;2023-05-02T05:06:21;18.43;;;4.97;;
26040;SDS011;13816;53.628;9.950;2023-05-02T05:08:50;21.20;;;4.90;;
26040;SDS011;13816;53.628;9.950;2023-05-02T05:11:18;21.43;;;5.00;;
26040;SDS011;13816;53.628;9.950;2023-05-02T05:13:45;22.33;;;4.70;;
26040;SDS011;13816;53.628;9.950;2023-05-02T05:16:14;17.67;;;4.20;;
26040;SDS011;13816;53.628;9.950;2023-05-02T05:18:42;27.83;;;5.03;;
26040;SDS011;13816;53.628;9.950;2023-05-02T05:21:12;21.17;;;5.00;;
26040;SDS011;13816;53.628;9.950;2023-05-02T05:23:39;15.20;;;4.40;;
26040;SDS011;13816;53.628;9.950;2023-05-02T05:26:15;22.27;;;4.67;;
26040;SDS011;13816;53.628;9.950;2023-05-02T05:28:45;17.00;;;4.83;;
26040;SDS011;13816;53.628;9.950;2023-05-02T05:31:13;16.00;;;4.40;;
26040;SDS011;13816;53.628;9.950;2023-05-02T05:33:46;23.23;;;5.20;;
26040;SDS011;13816;53.628;9.950;2023-05-02T05:36:14;20.97;;;5.43;;
26040;SDS011;13816;53.628;9.950;2023-05-02T05:38:42;16.17;;;4.30;;
26040;SDS011;13816;53.628;9.950;2023-05-02T05:41:10;21.13;;;4.77;;
26040;SDS011;13816;53.628;9.950;2023-05-02T05:43:43;18.87;;;4.70;;
26040;SDS011;13816;53.628;9.950;2023-05-02T05:46:11;23.27;;;4.00;;
26040;SDS011;13816;53.628;9.950;2023-05-02T05:48:39;22.80;;;4.30;;
26040;SDS011;13816;53.628;9.950;2023-05-02T05:51:06;23.33;;;4.40;;
26040;SDS011;13816;53.628;9.950;2023-05-02T05:53:34;11.07;;;3.70;;
26040;SDS011;13816;53.628;9.950;2023-05-02T05:56:08;25.00;;;4.70;;
26040;SDS011;13816;53.628;9.950;2023-05-02T05:58:38;13.67;;;4.20;;
26040;SDS011;13816;53.628;9.950;2023-05-02T06:01:06;14.23;;;4.03;;
26040;SDS011;13816;53.628;9.950;2023-05-02T06:03:35;12.00;;;4.03;;
26040;SDS011;13816;53.628;9.950;2023-05-02T06:06:03;14.03;;;4.10;;
26040;SDS011;13816;53.628;9.950;2023-05-02T06:08:37;8.03;;;3.60;;
26040;SDS011;13816;53.628;9.950;2023-05-02T06:11:08;12.27;;;4.10;;
26040;SDS011;13816;53.628;9.950;2023-05-02T06:13:39;25.33;;;4.37;;
26040;SDS011;13816;53.628;9.950;2023-05-02T06:16:09;7.37;;;3.13;;
26040;SDS011;13816;53.628;9.950;2023-05-02T06:18:37;12.30;;;3.83;;
26040;SDS011;13816;53.628;9.950;2023-05-02T06:21:05;14.13;;;4.20;;
26040;SDS011;13816;53.628;9.950;2023-05-02T06:23:34;16.67;;;3.33;;
26040;SDS011;13816;53.628;9.950;2023-05-02T06:26:02;12.53;;;3.10;;
26040;SDS011;13816;53.628;9.950;2023-05-02T06:28:30;14.20;;;4.00;;
26040;SDS011;13816;53.628;9.950;2023-05-02T06:31:01;10.73;;;3.50;;
26040;SDS011;13816;53.628;9.950;2023-05-02T06:33:29;14.00;;;3.53;;
26040;SDS011;13816;53.628;9.950;2023-05-02T06:36:00;8.80;;;3.47;;
26040;SDS011;13816;53.628;9.950;2023-05-02T06:38:28;12.17;;;3.43;;
26040;SDS011;13816;53.628;9.950;2023-05-02T06:40:55;12.50;;;3.13;;
26040;SDS011;13816;53.628;9.950;2023-05-02T06:43:22;11.30;;;3.60;;
26040;SDS011;13816;53.628;9.950;2023-05-02T06:45:53;8.10;;;3.43;;
26040;SDS011;13816;53.628;9.950;2023-05-02T06:48:24;7.47;;;3.50;;
26040;SDS011;13816;53.628;9.950;2023-05-02T06:50:51;13.37;;;3.07;;
26040;SDS011;13816;53.628;9.950;2023-05-02T06:53:22;6.57;;;3.40;;
26040;SDS011;13816;53.628;9.950;2023-05-02T06:55:49;7.70;;;3.27;;
26040;SDS011;13816;53.628;9.950;2023-05-02T06:58:16;7.37;;;2.90;;
26040;SDS011;13816;53.628;9.950;2023-05-02T07:00:44;8.20;;;3.07;;
26040;SDS011;13816;53.628;9.950;2023-05-02T07:03:12;14.60;;;3.83;;
26040;SDS011;13816;53.628;9.950;2023-05-02T07:05:40;7.33;;;2.60;;
26040;SDS011;13816;53.628;9.950;2023-05-02T07:08:07;7.43;;;2.93;;
26040;SDS011;13816;53.628;9.950;2023-05-02T07:10:35;7.10;;;3.67;;
26040;SDS011;13816;53.628;9.950;2023-05-02T07:13:03;9.10;;;3.47;;
26040;SDS011;13816;53.628;9.950;2023-05-02T07:15:30;5.50;;;2.70;;
26040;SDS011;13816;53.628;9.950;2023-05-02T07:17:59;5.47;;;2.60;;
26040;SDS011;13816;53.628;9.950;2023-05-02T07:20:27;6.93;;;2.23;;
26040;SDS011;13816;53.628;9.950;2023-05-02T07:22:55;7.30;;;2.10;;
26040;SDS011;13816;53.628;9.950;2023-05-02T07:25:22;8.67;;;2.60;;
26040;SDS011;13816;53.628;9.950;2023-05-02T07:27:49;3.33;;;1.83;;
26040;SDS011;13816;53.628;9.950;2023-05-02T07:30:17;4.73;;;2.23;;
26040;SDS011;13816;53.628;9.950;2023-05-02T07:32:44;6.80;;;2.10;;
26040;SDS011;13816;53.628;9.950;2023-05-02T07:35:14;5.73;;;1.83;;
26040;SDS011;13816;53.628;9.950;2023-05-02T07:37:42;7.83;;;2.10;;
26040;SDS011;13816;53.628;9.950;2023-05-02T07:40:09;6.63;;;2.13;;
26040;SDS011;13816;53.628;9.950;2023-05-02T07:42:37;5.47;;;2.03;;
26040;SDS011;13816;53.628;9.950;2023-05-02T07:45:08;7.43;;;2.53;;
26040;SDS011;13816;53.628;9.950;2023-05-02T07:47:36;3.87;;;2.07;;
26040;SDS011;13816;53.628;9.950;2023-05-02T07:50:04;5.43;;;2.53;;
26040;SDS011;13816;53.628;9.950;2023-05-02T07:52:32;7.03;;;2.33;;
26040;SDS011;13816;53.628;9.950;2023-05-02T07:54:59;7.70;;;2.50;;
26040;SDS011;13816;53.628;9.950;2023-05-02T07:57:27;8.17;;;2.37;;
26040;SDS011;13816;53.628;9.950;2023-05-02T07:59:55;7.83;;;2.43;;
26040;SDS011;13816;53.628;9.950;2023-05-02T08:02:22;9.03;;;2.77;;
26040;SDS011;13816;53.628;9.950;2023-05-02T08:04:51;6.00;;;2.13;;
26040;SDS011;13816;53.628;9.950;2023-05-02T08:07:19;9.10;;;2.17;;
26040;SDS011;13816;53.628;9.950;2023-05-02T08:09:47;9.10;;;2.57;;
26040;SDS011;13816;53.628;9.950;2023-05-02T08:12:14;9.70;;;2.83;;
26040;SDS011;13816;53.628;9.950;2023-05-02T08:14:42;6.00;;;1.50;;
26040;SDS011;13816;53.628;9.950;2023-05-02T08:17:09;12.37;;;2.70;;
26040;SDS011;13816;53.628;9.950;2023-05-02T08:19:36;6.37;;;2.60;;
26040;SDS011;13816;53.628;9.950;2023-05-02T08:22:05;4.63;;;1.90;;
26040;SDS011;13816;53.628;9.950;2023-05-02T08:24:32;6.90;;;2.40;;
26040;SDS011;13816;53.628;9.950;2023-05-02T08:27:00;15.23;;;2.00;;
26040;SDS011;13816;53.628;9.950;2023-05-02T08:29:30;9.03;;;2.53;;
26040;SDS011;13816;53.628;9.950;2023-05-02T08:31:58;10.83;;;2.50;;
26040;SDS011;13816;53.628;9.950;2023-05-02T08:34:25;10.60;;;2.70;;
26040;SDS011;13816;53.628;9.950;2023-05-02T08:36:53;9.00;;;2.70;;
26040;SDS011;13816;53.628;9.950;2023-05-02T08:39:24;8.77;;;2.40;;
26040;SDS011;13816;53.628;9.950;2023-05-02T08:41:51;10.63;;;2.40;;
26040;SDS011;13816;53.628;9.950;2023-05-02T08:44:19;6.70;;;2.70;;
26040;SDS011;13816;53.628;9.950;2023-05-02T08:46:46;3.37;;;1.67;;
26040;SDS011;13816;53.628;9.950;2023-05-02T08:49:16;9.87;;;2.80;;
26040;SDS011;13816;53.628;9.950;2023-05-02T08:51:44;9.47;;;2.20;;
26040;SDS011;13816;53.628;9.950;2023-05-02T08:54:14;6.53;;;2.43;;
26040;SDS011;13816;53.628;9.950;2023-05-02T08:56:42;4.87;;;2.20;;
26040;SDS011;13816;53.628;9.950;2023-05-02T08:59:09;4.80;;;2.13;;
26040;SDS011;13816;53.628;9.950;2023-05-02T09:09:39;5.57;;;2.30;;
26040;SDS011;13816;53.628;9.950;2023-05-02T09:31:37;5.43;;;1.73;;
26040;SDS011;13816;53.628;9.950;2023-05-02T09:54:35;4.03;;;1.73;;
26040;SDS011;13816;53.628;9.950;2023-05-02T11:39:30;12.20;;;1.90;;
26040;SDS011;13816;53.628;9.950;2023-05-02T12:22:06;11.37;;;2.13;;
26040;SDS011;13816;53.628;9.950;2023-05-02T12:44:38;2.77;;;1.63;;
26040;SDS011;13816;53.628;9.950;2023-05-02T13:04:39;8.70;;;2.30;;
26040;SDS011;13816;53.628;9.950;2023-05-02T13:07:10;6.07;;;2.03;;
26040;SDS011;13816;53.628;9.950;2023-05-02T15:59:48;7.70;;;2.10;;
26040;SDS011;13816;53.628;9.950;2023-05-02T16:02:15;7.37;;;2.67;;
26040;SDS011;13816;53.628;9.950;2023-05-02T16:04:45;5.00;;;2.30;;
26040;SDS011;13816;53.628;9.950;2023-05-02T16:07:15;9.10;;;2.90;;
26040;SDS011;13816;53.628;9.950;2023-05-02T17:13:43;6.50;;;1.50;;
26040;SDS011;13816;53.628;9.950;2023-05-02T17:20:46;5.53;;;1.33;;
26040;SDS011;13816;53.628;9.950;2023-05-02T18:03:22;4.87;;;1.43;;
26040;SDS011;13816;53.628;9.950;2023-05-02T18:05:52;5.93;;;1.40;;
26040;SDS011;13816;53.628;9.950;2023-05-02T18:08:21;10.30;;;1.20;;
26040;SDS011;13816;53.628;9.950;2023-05-02T18:10:48;1.87;;;1.50;;
26040;SDS011;13816;53.628;9.950;2023-05-02T18:13:25;6.03;;;1.50;;
26040;SDS011;13816;53.628;9.950;2023-05-02T18:15:56;8.43;;;1.07;;
26040;SDS011;13816;53.628;9.950;2023-05-02T18:18:25;5.33;;;1.33;;
26040;SDS011;13816;53.628;9.950;2023-05-02T18:20:53;5.40;;;2.07;;
26040;SDS011;13816;53.628;9.950;2023-05-02T18:23:23;6.20;;;1.97;;
26040;SDS011;13816;53.628;9.950;2023-05-02T18:25:50;7.23;;;1.53;;
26040;SDS011;13816;53.628;9.950;2023-05-02T18:28:18;4.47;;;1.53;;
26040;SDS011;13816;53.628;9.950;2023-05-02T18:30:46;6.27;;;1.73;;
26040;SDS011;13816;53.628;9.950;2023-05-02T18:33:14;4.53;;;1.43;;
26040;SDS011;13816;53.628;9.950;2023-05-02T18:35:45;2.30;;;1.30;;
26040;SDS011;13816;53.628;9.950;2023-05-02T18:38:14;6.77;;;1.80;;
26040;SDS011;13816;53.628;9.950;2023-05-02T18:40:42;8.97;;;2.03;;
26040;SDS011;13816;53.628;9.950;2023-05-02T18:43:10;5.47;;;1.63;;
26040;SDS011;13816;53.628;9.950;2023-05-02T19:09:47;4.63;;;1.80;;
26040;SDS011;13816;53.628;9.950;2023-05-02T19:31:50;2.13;;;1.90;;
26040;SDS011;13816;53.628;9.950;2023-05-02T19:34:18;3.50;;;1.63;;
26040;SDS011;13816;53.628;9.950;2023-05-02T19:36:46;9.70;;;2.30;;
26040;SDS011;13816;53.628;9.950;2023-05-02T19:39:14;3.43;;;1.40;;
26040;SDS011;13816;53.628;9.950;2023-05-02T19:41:42;7.03;;;2.30;;
26040;SDS011;13816;53.628;9.950;2023-05-02T19:44:11;6.33;;;2.23;;
26040;SDS011;13816;53.628;9.950;2023-05-02T19:46:39;8.43;;;1.40;;
26040;SDS011;13816;53.628;9.950;2023-05-02T19:49:16;5.23;;;1.47;;
26040;SDS011;13816;53.628;9.950;2023-05-02T19:51:44;3.60;;;1.50;;
26040;SDS011;13816;53.628;9.950;2023-05-02T19:54:12;5.87;;;1.90;;
26040;SDS011;13816;53.628;9.950;2023-05-02T19:56:40;4.20;;;1.60;;
26040;SDS011;13816;53.628;9.950;2023-05-02T19:59:12;4.33;;;1.60;;
26040;SDS011;13816;53.628;9.950;2023-05-02T20:01:40;7.80;;;1.60;;
26040;SDS011;13816;53.628;9.950;2023-05-02T20:04:08;8.00;;;4.20;;
26040;SDS011;13816;53.628;9.950;2023-05-02T20:06:37;7.83;;;3.00;;
26040;SDS011;13816;53.628;9.950;2023-05-02T20:09:11;4.63;;;2.17;;
26040;SDS011;13816;53.628;9.950;2023-05-02T20:11:40;4.73;;;1.60;;
26040;SDS011;13816;53.628;9.950;2023-05-02T20:14:08;2.70;;;1.60;;
26040;SDS011;13816;53.628;9.950;2023-05-02T20:16:36;4.33;;;1.37;;
26040;SDS011;13816;53.628;9.950;2023-05-02T20:19:04;7.47;;;2.00;;
26040;SDS011;13816;53.628;9.950;2023-05-02T20:21:32;11.40;;;2.50;;
26040;SDS011;13816;53.628;9.950;2023-05-02T20:24:03;4.47;;;1.90;;
26040;SDS011;13816;53.628;9.950;2023-05-02T20:26:31;7.37;;;1.47;;
26040;SDS011;13816;53.628;9.950;2023-05-02T20:28:59;4.63;;;1.80;;
26040;SDS011;13816;53.628;9.950;2023-05-02T20:31:29;13.17;;;2.60;;
26040;SDS011;13816;53.628;9.950;2023-05-02T20:34:09;4.87;;;1.90;;
26040;SDS011;13816;53.628;9.950;2023-05-02T20:36:40;4.20;;;1.53;;
26040;SDS011;13816;53.628;9.950;2023-05-02T20:39:15;7.87;;;1.80;;
26040;SDS011;13816;53.628;9.950;2023-05-02T20:41:47;9.73;;;2.13;;
26040;SDS011;13816;53.628;9.950;2023-05-02T20:44:15;7.80;;;1.47;;
26040;SDS011;13816;53.628;9.950;2023-05-02T20:46:45;3.60;;;1.53;;
26040;SDS011;13816;53.628;9.950;2023-05-02T20:49:17;2.60;;;1.33;;
26040;SDS011;13816;53.628;9.950;2023-05-02T20:51:53;5.53;;;1.73;;
26040;SDS011;13816;53.628;9.950;2023-05-02T20:54:40;10.30;;;1.83;;
26040;SDS011;13816;53.628;9.950;2023-05-02T20:57:48;5.10;;;1.67;;
26040;SDS011;13816;53.628;9.950;2023-05-02T21:03:31;3.87;;;1.70;;
26040;SDS011;13816;53.628;9.950;2023-05-02T21:06:30;3.00;;;1.37;;
26040;SDS011;13816;53.628;9.950;2023-05-02T21:09:08;4.17;;;1.63;;
26040;SDS011;13816;53.628;9.950;2023-05-02T21:11:53;5.43;;;1.90;;
26040;SDS011;13816;53.628;9.950;2023-05-02T21:14:37;6.60;;;2.37;;
26040;SDS011;13816;53.628;9.950;2023-05-02T21:17:17;5.30;;;1.60;;
26040;SDS011;13816;53.628;9.950;2023-05-02T21:19:56;7.20;;;1.90;;
26040;SDS011;13816;53.628;9.950;2023-05-02T21:22:36;9.37;;;2.37;;
26040;SDS011;13816;53.628;9.950;2023-05-02T21:25:34;5.23;;;1.90;;
26040;SDS011;13816;53.628;9.950;2023-05-02T21:28:14;5.17;;;2.40;;
26040;SDS011;13816;53.628;9.950;2023-05-02T21:30:58;2.53;;;1.73;;
26040;SDS011;13816;53.628;9.950;2023-05-02T21:37:10;3.53;;;1.80;;
26040;SDS011;13816;53.628;9.950;2023-05-02T21:39:53;7.30;;;2.23;;
26040;SDS011;13816;53.628;9.950;2023-05-02T21:42:36;7.93;;;2.37;;
26040;SDS011;13816;53.628;9.950;2023-05-02T21:45:47;2.63;;;1.90;;
26040;SDS011;13816;53.628;9.950;2023-05-02T21:48:35;5.20;;;2.10;;
26040;SDS011;13816;53.628;9.950;2023-05-02T21:51:22;4.33;;;2.20;;
26040;SDS011;13816;53.628;9.950;2023-05-02T21:54:15;9.57;;;2.10;;
26040;SDS011;13816;53.628;9.950;2023-05-02T21:56:49;5.67;;;2.67;;
26040;SDS011;13816;53.628;9.950;2023-05-02T22:00:05;9.27;;;2.50;;
26040;SDS011;13816;53.628;9.950;2023-05-02T22:03:09;5.97;;;2.63;;
26040;SDS011;13816;53.628;9.950;2023-05-02T22:06:02;2.63;;;2.20;;
26040;SDS011;13816;53.628;9.950;2023-05-02T22:09:04;7.33;;;2.57;;
26040;SDS011;13816;53.628;9.950;2023-05-02T22:15:04;12.80;;;2.67;;
26040;SDS011;13816;53.628;9.950;2023-05-02T22:18:02;8.00;;;2.80;;
26040;SDS011;13816;53.628;9.950;2023-05-02T22:21:00;8.07;;;2.50;;
26040;SDS011;13816;53.628;9.950;2023-05-02T22:23:35;6.10;;;2.60;;
26040;SDS011;13816;53.628;9.950;2023-05-02T22:26:09;6.43;;;2.50;;
26040;SDS011;13816;53.628;9.950;2023-05-02T22:29:00;7.50;;;2.40;;
26040;SDS011;13816;53.628;9.950;2023-05-02T22:31:41;4.97;;;2.70;;
26040;SDS011;13816;53.628;9.950;2023-05-02T22:34:13;3.30;;;2.00;;
26040;SDS011;13816;53.628;9.950;2023-05-02T22:36:54;3.83;;;2.43;;
26040;SDS011;13816;53.628;9.950;2023-05-02T22:39:30;3.67;;;2.50;;
26040;SDS011;13816;53.628;9.950;2023-05-02T22:42:07;6.23;;;2.37;;
26040;SDS011;13816;53.628;9.950;2023-05-02T22:44:49;6.10;;;2.27;;
26040;SDS011;13816;53.628;9.950;2023-05-02T22:47:24;10.00;;;2.80;;
26040;SDS011;13816;53.628;9.950;2023-05-02T22:50:09;4.30;;;2.10;;
26040;SDS011;13816;53.628;9.950;2023-05-02T22:52:46;6.93;;;2.70;;
26040;SDS011;13816;53.628;9.950;2023-05-02T22:55:35;4.97;;;2.40;;
26040;SDS011;13816;53.628;9.950;2023-05-02T22:58:23;7.30;;;2.73;;
26040;SDS011;13816;53.628;9.950;2023-05-02T23:00:57;4.47;;;2.60;;
26040;SDS011;13816;53.628;9.950;2023-05-02T23:03:38;6.27;;;2.83;;
26040;SDS011;13816;53.628;9.950;2023-05-02T23:06:13;6.43;;;2.30;;
26040;SDS011;13816;53.628;9.950;2023-05-02T23:08:45;4.83;;;2.87;;
26040;SDS011;13816;53.628;9.950;2023-05-02T23:11:13;5.90;;;3.23;;
26040;SDS011;13816;53.628;9.950;2023-05-02T23:13:41;13.33;;;2.90;;
26040;SDS011;13816;53.628;9.950;2023-05-02T23:16:08;5.20;;;3.00;;
26040;SDS011;13816;53.628;9.950;2023-05-02T23:18:36;6.87;;;2.40;;
26040;SDS011;13816;53.628;9.950;2023-05-02T23:21:03;5.13;;;2.70;;
26040;SDS011;13816;53.628;9.950;2023-05-02T23:23:33;7.87;;;3.17;;
26040;SDS011;13816;53.628;9.950;2023-05-02T23:26:01;7.10;;;3.17;;
26040;SDS011;13816;53.628;9.950;2023-05-02T23:28:29;10.70;;;2.80;;
26040;SDS011;13816;53.628;9.950;2023-05-02T23:30:56;8.67;;;2.63;;
26040;SDS011;13816;53.628;9.950;2023-05-02T23:33:24;9.03;;;3.10;;
26040;SDS011;13816;53.628;9.950;2023-05-02T23:35:51;7.57;;;3.10;;
26040;SDS011;13816;53.628;9.950;2023-05-02T23:38:19;12.27;;;3.33;;
26040;SDS011;13816;53.628;9.950;2023-05-02T23:40:46;5.33;;;2.63;;
26040;SDS011;13816;53.628;9.950;2023-05-02T23:43:13;8.57;;;3.10;;
26040;SDS011;13816;53.628;9.950;2023-05-02T23:45:41;7.67;;;2.40;;
26040;SDS011;13816;53.628;9.950;2023-05-02T23:48:08;7.10;;;2.90;;
26040;SDS011;13816;53.628;9.950;2023-05-02T23:50:35;3.90;;;2.27;;
26040;SDS011;13816;53.628;9.950;2023-05-02T23:53:03;12.00;;;3.00;;
26040;SDS011;13816;53.628;9.950;2023-05-02T23:55:30;7.50;;;3.13;;
26040;SDS011;13816;53.628;9.950;2023-05-02T23:57:58;6.77;;;3.37;;
